Time;durP1;ratioP1;P1;durP2;ratioP2;P2;SDS_P1;SDS_P2;PMS_P1;PMS_P2;Temp;Humidity;BMP_temperature;BMP_pressure;BME280_temperature;BME280_humidity;BME280_pressure;Samples;Min_cycle;Max_cycle;Signal;HPM_P1;HPM_P2
2022/08/07 00:01:15;;;;;;;9.52;8.35;;;14.50;79.30;;;;;;5114281;28;20043;-76
2022/08/07 00:03:41;;;;;;;7.45;6.70;;;14.50;79.40;;;;;;5097367;28;20036;-77
2022/08/07 00:06:09;;;;;;;10.52;8.32;;;14.50;79.40;;;;;;5047982;28;20108;-78
2022/08/07 00:08:36;;;;;;;10.88;8.80;;;14.50;79.40;;;;;;5097100;28;20070;-77
2022/08/07 00:11:03;;;;;;;12.23;8.77;;;14.60;79.20;;;;;;5096918;28;20036;-78
2022/08/07 00:13:29;;;;;;;8.73;7.82;;;14.50;79.40;;;;;;5080288;28;20395;-77
2022/08/07 00:15:55;;;;;;;8.50;7.22;;;14.50;79.70;;;;;;5080003;28;20051;-77
2022/08/07 00:18:26;;;;;;;9.10;8.15;;;14.50;80.00;;;;;;5080005;28;20036;-78
2022/08/07 00:21:01;;;;;;;8.57;7.68;;;14.50;79.90;;;;;;5079936;28;20114;-77
2022/08/07 00:23:28;;;;;;;6.60;6.00;;;14.50;79.80;;;;;;5079902;28;20039;-78
2022/08/07 00:25:54;;;;;;;8.07;6.85;;;14.40;80.00;;;;;;5096684;28;20433;-79
2022/08/07 00:28:28;;;;;;;6.70;6.10;;;14.30;80.10;;;;;;5079973;28;20040;-79
2022/08/07 00:30:54;;;;;;;6.68;5.97;;;14.20;80.50;;;;;;5080116;28;20443;-78
2022/08/07 00:33:27;;;;;;;6.50;5.90;;;14.20;80.10;;;;;;5079748;28;20066;-77
2022/08/07 00:35:54;;;;;;;7.13;6.30;;;14.20;80.40;;;;;;5064154;28;20035;-78
2022/08/07 00:38:20;;;;;;;7.65;6.57;;;14.10;80.60;;;;;;5113283;28;20067;-76
2022/08/07 00:40:46;;;;;;;7.15;6.22;;;14.00;80.80;;;;;;5113379;28;20035;-79
2022/08/07 00:43:13;;;;;;;7.10;5.78;;;14.00;80.90;;;;;;5096351;28;20123;-79
2022/08/07 00:45:39;;;;;;;6.75;6.15;;;14.00;80.90;;;;;;5096196;28;20135;-77
2022/08/07 00:48:07;;;;;;;6.97;6.28;;;14.00;81.00;;;;;;5113317;28;20039;-78
2022/08/07 00:50:38;;;;;;;7.60;6.88;;;14.00;81.10;;;;;;5113405;28;20080;-77
2022/08/07 00:53:04;;;;;;;7.13;6.43;;;14.00;81.20;;;;;;5080426;28;20096;-76
2022/08/07 00:55:30;;;;;;;6.95;6.25;;;14.00;81.50;;;;;;5079143;28;20044;-76
2022/08/07 00:57:57;;;;;;;9.27;7.03;;;14.00;81.50;;;;;;5112780;28;20483;-76
2022/08/07 01:00:26;;;;;;;7.57;6.88;;;14.00;81.30;;;;;;5113293;28;20048;-78
2022/08/07 01:02:52;;;;;;;7.90;6.85;;;14.00;81.50;;;;;;5095975;28;20491;-78
2022/08/07 01:05:21;;;;;;;8.73;7.60;;;14.00;81.40;;;;;;5079141;28;20083;-78
2022/08/07 01:07:47;;;;;;;7.50;6.80;;;14.00;81.50;;;;;;5095898;28;20135;-76
2022/08/07 01:10:12;;;;;;;8.10;7.30;;;14.00;81.50;;;;;;5095830;28;20046;-78
2022/08/07 01:12:41;;;;;;;7.35;6.20;;;14.00;81.90;;;;;;5079111;28;20035;-78
2022/08/07 01:15:08;;;;;;;6.15;4.70;;;14.00;81.70;;;;;;5112633;28;20475;-78
2022/08/07 01:17:34;;;;;;;4.65;4.13;;;14.00;81.60;;;;;;5095645;28;20126;-77
2022/08/07 01:20:09;;;;;;;4.35;3.95;;;13.90;81.70;;;;;;5095631;28;20046;-79
2022/08/07 01:22:37;;;;;;;3.50;3.20;;;13.90;81.60;;;;;;5095673;28;20123;-77
2022/08/07 01:25:05;;;;;;;4.78;3.58;;;13.80;81.50;;;;;;5112493;28;20513;-78
2022/08/07 01:27:31;;;;;;;4.72;3.97;;;13.80;81.40;;;;;;5078648;28;20051;-79
2022/08/07 01:29:57;;;;;;;5.07;4.50;;;13.80;81.50;;;;;;5078706;28;20035;-79
2022/08/07 01:32:23;;;;;;;6.88;5.43;;;13.70;81.70;;;;;;5112700;28;20042;-77
2022/08/07 01:34:50;;;;;;;8.02;5.57;;;13.70;81.70;;;;;;5112638;28;20437;-78
2022/08/07 01:37:17;;;;;;;8.30;6.03;;;13.70;81.80;;;;;;5108773;28;20135;-77
2022/08/07 01:39:44;;;;;;;9.05;6.50;;;13.70;81.80;;;;;;5109006;28;20115;-77
2022/08/07 01:42:11;;;;;;;7.40;5.68;;;13.70;81.90;;;;;;5108911;28;20491;-76
2022/08/07 01:44:37;;;;;;;6.50;5.60;;;13.70;81.80;;;;;;5075234;28;20391;-76
2022/08/07 01:47:03;;;;;;;6.70;6.00;;;13.70;81.90;;;;;;5108832;28;20036;-77
2022/08/07 01:49:29;;;;;;;7.63;5.72;;;13.60;82.00;;;;;;5109070;28;20036;-75
2022/08/07 01:51:55;;;;;;;8.50;5.30;;;13.70;82.10;;;;;;5108824;28;20391;-75
2022/08/07 01:54:22;;;;;;;7.78;5.80;;;13.70;82.10;;;;;;5108824;28;20044;-77
2022/08/07 01:57:06;;;;;;;6.50;5.70;;;13.70;82.10;;;;;;5109014;28;20040;-77
2022/08/07 01:59:44;;;;;;;7.80;5.55;;;13.70;82.30;;;;;;5108755;28;20504;-76
2022/08/07 02:02:19;;;;;;;6.03;5.18;;;13.70;82.30;;;;;;5092050;28;20080;-76
2022/08/07 02:04:55;;;;;;;6.93;5.10;;;13.60;82.40;;;;;;5108707;28;20047;-76
2022/08/07 02:07:24;;;;;;;6.75;4.95;;;13.60;82.50;;;;;;5108724;28;20043;-76
2022/08/07 02:09:52;;;;;;;5.90;5.13;;;13.70;82.40;;;;;;5109350;28;20036;-76
2022/08/07 02:12:19;;;;;;;8.15;5.85;;;13.70;82.20;;;;;;5112923;28;20488;-78
2022/08/07 02:14:49;;;;;;;7.75;6.38;;;13.70;82.10;;;;;;5112773;28;20050;-78
2022/08/07 02:17:15;;;;;;;9.73;6.40;;;13.60;82.10;;;;;;5078890;28;20040;-78
2022/08/07 02:19:44;;;;;;;8.85;6.13;;;13.60;82.60;;;;;;5112768;28;20039;-76
2022/08/07 02:22:12;;;;;;;8.45;6.68;;;13.70;82.70;;;;;;5112956;28;20044;-75
2022/08/07 02:24:42;;;;;;;7.45;6.22;;;13.70;82.70;;;;;;5112623;28;20051;-76
2022/08/07 02:27:08;;;;;;;7.43;6.35;;;13.70;82.80;;;;;;5112583;28;20365;-77
2022/08/07 02:29:35;;;;;;;6.60;5.28;;;13.70;82.70;;;;;;5078892;28;20073;-75
2022/08/07 02:32:02;;;;;;;7.97;5.57;;;13.70;82.50;;;;;;5112587;28;20508;-76
2022/08/07 02:34:29;;;;;;;9.20;5.93;;;13.70;82.40;;;;;;5112717;28;20071;-76
2022/08/07 02:36:57;;;;;;;7.03;6.05;;;13.60;82.40;;;;;;5114117;28;20046;-75
2022/08/07 02:39:24;;;;;;;7.75;5.50;;;13.60;82.30;;;;;;5098780;28;20531;-76
2022/08/07 02:41:51;;;;;;;7.90;6.03;;;13.60;82.30;;;;;;5081955;28;20039;-74
2022/08/07 02:44:18;;;;;;;7.97;6.22;;;13.60;82.30;;;;;;5081845;28;20110;-76
2022/08/07 02:46:46;;;;;;;7.10;5.90;;;13.50;82.30;;;;;;5098751;28;20051;-75
2022/08/07 02:49:12;;;;;;;8.05;6.97;;;13.50;82.40;;;;;;5065166;28;20043;-76
2022/08/07 02:51:39;;;;;;;7.65;6.55;;;13.50;82.30;;;;;;5081627;28;20043;-76
2022/08/07 02:54:08;;;;;;;9.82;7.53;;;13.50;82.40;;;;;;5081817;28;20043;-76
2022/08/07 02:56:37;;;;;;;12.20;7.18;;;13.50;82.60;;;;;;5115799;28;20399;-76
2022/08/07 02:59:07;;;;;;;8.63;6.63;;;13.60;82.90;;;;;;5115322;28;20066;-76
2022/08/07 03:01:34;;;;;;;8.73;6.80;;;13.50;82.80;;;;;;5115359;28;20039;-77
2022/08/07 03:04:01;;;;;;;7.47;6.47;;;13.60;82.60;;;;;;5115218;28;20040;-77
2022/08/07 03:06:28;;;;;;;9.75;7.38;;;13.60;82.50;;;;;;5115158;28;20047;-76
2022/08/07 03:08:55;;;;;;;9.77;7.78;;;13.60;82.50;;;;;;5098277;28;20051;-77
2022/08/07 03:11:21;;;;;;;8.25;7.35;;;13.60;82.60;;;;;;5098149;28;20114;-76
2022/08/07 03:13:47;;;;;;;11.43;7.38;;;13.60;82.70;;;;;;5115111;28;20146;-75
2022/08/07 03:16:13;;;;;;;11.25;8.35;;;13.60;82.60;;;;;;5114959;28;20039;-76
2022/08/07 03:18:39;;;;;;;12.30;7.93;;;13.60;82.80;;;;;;5115159;28;20428;-76
2022/08/07 03:21:05;;;;;;;9.10;7.97;;;13.60;83.40;;;;;;5114775;28;20112;-77
2022/08/07 03:23:33;;;;;;;8.95;7.90;;;13.50;83.60;;;;;;5114963;28;20046;-76
2022/08/07 03:26:00;;;;;;;9.85;7.55;;;13.50;84.00;;;;;;5081060;28;20055;-76
2022/08/07 03:28:28;;;;;;;10.30;7.90;;;13.50;84.40;;;;;;5114849;28;20080;-76
2022/08/07 03:31:17;;;;;;;12.10;8.25;;;13.50;84.20;;;;;;5097775;28;20031;-75
2022/08/07 03:33:43;;;;;;;10.60;8.25;;;13.50;84.10;;;;;;5097602;28;20047;-76
2022/08/07 03:36:10;;;;;;;10.73;8.73;;;13.40;84.50;;;;;;5114582;28;20047;-76
2022/08/07 03:38:38;;;;;;;9.98;8.25;;;13.40;84.30;;;;;;5093943;28;20056;-78
2022/08/07 03:41:04;;;;;;;11.07;9.65;;;13.30;84.60;;;;;;5111208;28;20055;-77
2022/08/07 03:43:31;;;;;;;12.18;9.05;;;13.30;84.20;;;;;;5111098;28;20051;-77
2022/08/07 03:45:58;;;;;;;11.40;9.10;;;13.30;85.70;;;;;;5110989;28;20127;-75
2022/08/07 03:48:25;;;;;;;10.93;8.63;;;13.30;84.90;;;;;;5077674;28;20043;-75
2022/08/07 03:50:52;;;;;;;11.48;8.50;;;13.20;84.90;;;;;;5077280;28;20032;-76
2022/08/07 03:53:18;;;;;;;10.75;8.20;;;13.20;84.80;;;;;;5111073;28;20040;-76
2022/08/07 03:55:44;;;;;;;11.65;9.00;;;13.30;84.80;;;;;;5077113;28;20046;-77
2022/08/07 03:58:11;;;;;;;9.85;8.75;;;13.30;84.80;;;;;;5110798;28;20070;-76
2022/08/07 04:00:39;;;;;;;11.38;8.48;;;13.30;84.50;;;;;;5060081;28;20571;-76
2022/08/07 04:03:05;;;;;;;11.05;8.27;;;13.30;84.50;;;;;;5110348;28;20510;-78
2022/08/07 04:05:35;;;;;;;11.32;8.48;;;13.30;84.40;;;;;;5076645;28;20131;-75
2022/08/07 04:08:02;;;;;;;11.55;9.32;;;13.30;84.90;;;;;;5110941;28;20063;-76
2022/08/07 04:10:29;;;;;;;10.77;7.88;;;13.30;84.40;;;;;;5076999;28;20560;-76
2022/08/07 04:12:55;;;;;;;9.30;8.32;;;13.30;84.60;;;;;;5076792;28;20037;-75
2022/08/07 04:15:21;;;;;;;9.23;7.90;;;13.30;84.60;;;;;;5076641;28;20532;-77
2022/08/07 04:17:47;;;;;;;10.30;8.65;;;13.40;84.50;;;;;;5110868;28;20044;-75
2022/08/07 04:20:13;;;;;;;10.68;8.15;;;13.40;84.60;;;;;;5110474;28;20058;-76
2022/08/07 04:22:40;;;;;;;10.82;8.27;;;13.30;84.50;;;;;;5110750;28;20414;-76
2022/08/07 04:25:07;;;;;;;10.93;8.63;;;13.30;84.60;;;;;;5076343;28;20047;-75
2022/08/07 04:27:34;;;;;;;9.80;7.82;;;13.30;85.00;;;;;;5110513;28;20127;-75
2022/08/07 04:29:59;;;;;;;8.70;7.03;;;13.20;85.10;;;;;;5110840;28;20058;-76
2022/08/07 04:32:30;;;;;;;7.13;6.43;;;13.20;84.80;;;;;;5075678;28;20036;-77
2022/08/07 04:34:56;;;;;;;11.65;8.23;;;13.20;84.60;;;;;;5110342;28;20512;-77
2022/08/07 04:37:21;;;;;;;11.00;8.50;;;13.10;84.90;;;;;;5089587;28;20060;-76
2022/08/07 04:39:47;;;;;;;9.50;8.30;;;13.10;85.80;;;;;;5073019;28;20032;-75
2022/08/07 04:42:13;;;;;;;8.77;7.63;;;13.10;85.20;;;;;;5056080;28;20098;-76
2022/08/07 04:44:39;;;;;;;10.02;7.65;;;13.10;85.20;;;;;;5072588;28;20407;-77
2022/08/07 04:47:27;;;;;;;7.57;6.57;;;13.20;85.40;;;;;;5072622;28;20052;-76
2022/08/07 04:50:04;;;;;;;10.13;8.23;;;13.20;85.30;;;;;;5073013;28;20365;-76
2022/08/07 04:52:45;;;;;;;10.40;7.40;;;13.20;85.30;;;;;;5072948;28;20047;-78
2022/08/07 04:55:44;;;;;;;10.65;8.13;;;13.20;85.00;;;;;;5089731;28;20127;-74
2022/08/07 04:58:23;;;;;;;9.00;7.22;;;13.30;85.00;;;;;;5072997;28;20068;-76
2022/08/07 05:00:56;;;;;;;9.20;8.20;;;13.30;85.10;;;;;;5072676;28;20040;-74
2022/08/07 05:03:48;;;;;;;11.45;8.65;;;13.40;85.20;;;;;;5089916;28;20040;-76
2022/08/07 05:06:30;;;;;;;10.13;8.07;;;13.50;85.00;;;;;;5089130;28;20045;-74
2022/08/07 05:09:24;;;;;;;11.50;8.38;;;13.50;85.00;;;;;;5089562;28;20044;-76
2022/08/07 05:11:52;;;;;;;11.63;8.40;;;13.50;85.40;;;;;;5096032;28;20040;-76
2022/08/07 05:14:29;;;;;;;11.02;7.90;;;13.50;85.50;;;;;;5066862;28;20047;-75
2022/08/07 05:16:59;;;;;;;6.18;5.45;;;13.50;85.10;;;;;;5099943;28;20032;-77
2022/08/07 05:19:29;;;;;;;18.42;8.40;;;13.60;84.70;;;;;;5081543;28;20455;-75
2022/08/07 05:21:59;;;;;;;7.65;6.82;;;13.70;84.20;;;;;;5097491;28;20040;-76
2022/08/07 05:24:27;;;;;;;9.80;7.57;;;13.80;84.20;;;;;;5080927;28;20047;-76
2022/08/07 05:26:56;;;;;;;8.95;6.65;;;13.90;84.00;;;;;;5097493;28;20048;-76
2022/08/07 05:29:24;;;;;;;7.43;6.38;;;13.90;83.80;;;;;;5096459;28;20550;-75
2022/08/07 05:31:51;;;;;;;10.48;7.00;;;14.00;83.40;;;;;;5089176;28;20388;-76
2022/08/07 05:34:18;;;;;;;6.82;5.53;;;14.00;83.20;;;;;;5072029;28;20044;-75
2022/08/07 05:36:52;;;;;;;11.05;8.35;;;14.10;82.90;;;;;;5089011;28;20428;-76
2022/08/07 05:39:19;;;;;;;7.90;6.20;;;14.20;82.80;;;;;;5078318;28;20134;-76
2022/08/07 05:41:47;;;;;;;7.03;5.97;;;14.30;82.40;;;;;;5095568;28;20546;-76
2022/08/07 05:44:16;;;;;;;10.15;6.28;;;14.40;82.20;;;;;;5078100;28;20044;-76
2022/08/07 05:46:43;;;;;;;10.07;7.70;;;14.40;82.40;;;;;;5095078;28;20502;-75
2022/08/07 05:49:10;;;;;;;7.80;6.72;;;14.50;81.80;;;;;;5112289;28;20036;-75
2022/08/07 05:51:37;;;;;;;8.45;7.63;;;14.50;81.80;;;;;;5095603;28;20141;-76
2022/08/07 05:54:03;;;;;;;11.70;7.95;;;14.60;82.30;;;;;;5095546;28;20124;-76
2022/08/07 05:56:32;;;;;;;8.32;7.45;;;14.60;82.10;;;;;;5112339;28;20049;-76
2022/08/07 05:59:04;;;;;;;7.95;7.15;;;14.70;82.20;;;;;;5095114;28;20100;-76
2022/08/07 06:01:30;;;;;;;8.48;7.13;;;14.70;82.40;;;;;;5095447;28;20047;-75
2022/08/07 06:03:57;;;;;;;10.70;7.75;;;14.80;81.40;;;;;;5112109;28;20050;-76
2022/08/07 06:06:24;;;;;;;8.00;6.85;;;14.90;81.20;;;;;;5078188;28;20048;-76
2022/08/07 06:08:51;;;;;;;10.55;6.68;;;14.90;81.20;;;;;;5112069;28;20050;-76
2022/08/07 06:11:17;;;;;;;7.63;5.85;;;15.00;81.20;;;;;;5112302;28;20092;-76
2022/08/07 06:13:43;;;;;;;10.57;7.38;;;15.10;81.10;;;;;;5078357;28;20035;-77
2022/08/07 06:16:09;;;;;;;7.47;6.00;;;15.20;80.80;;;;;;5078449;28;20043;-77
2022/08/07 06:18:35;;;;;;;10.10;6.70;;;15.20;80.40;;;;;;5078566;28;20426;-77
2022/08/07 06:21:03;;;;;;;8.88;6.30;;;15.30;80.20;;;;;;5094916;28;20081;-77
2022/08/07 06:23:29;;;;;;;8.23;6.50;;;15.40;80.20;;;;;;5112221;28;20492;-77
2022/08/07 06:25:56;;;;;;;9.02;6.22;;;15.50;79.80;;;;;;5111962;28;20403;-77
2022/08/07 06:28:23;;;;;;;9.63;6.40;;;15.50;79.30;;;;;;5112133;28;20039;-76
2022/08/07 06:30:49;;;;;;;8.27;5.90;;;15.60;79.20;;;;;;5095098;28;20038;-76
2022/08/07 06:33:14;;;;;;;8.50;6.63;;;15.70;78.60;;;;;;5094820;28;20122;-77
2022/08/07 06:35:40;;;;;;;7.97;5.95;;;15.80;78.40;;;;;;5077876;28;20050;-76
2022/08/07 06:38:06;;;;;;;9.23;6.30;;;15.80;77.90;;;;;;5077768;28;20056;-76
2022/08/07 06:40:41;;;;;;;6.65;5.72;;;15.90;77.40;;;;;;5111843;28;20050;-76
2022/08/07 06:43:10;;;;;;;8.63;5.85;;;16.00;77.00;;;;;;5078109;28;20570;-77
2022/08/07 06:45:36;;;;;;;14.07;6.25;;;16.10;77.00;;;;;;5111557;28;20044;-77
2022/08/07 06:48:02;;;;;;;6.28;5.43;;;16.20;76.90;;;;;;5061210;28;20047;-77
2022/08/07 06:50:29;;;;;;;9.77;6.13;;;16.30;76.80;;;;;;5094718;28;20046;-76
2022/08/07 06:52:57;;;;;;;6.68;4.63;;;16.40;76.20;;;;;;5077959;28;20510;-76
2022/08/07 06:55:29;;;;;;;6.40;4.90;;;16.50;75.30;;;;;;5094853;28;20180;-76
2022/08/07 06:57:58;;;;;;;6.78;4.68;;;16.50;74.80;;;;;;5115435;28;20506;-77
2022/08/07 07:00:26;;;;;;;6.45;4.45;;;16.60;74.90;;;;;;5115408;28;20055;-77
2022/08/07 07:02:53;;;;;;;6.70;4.25;;;16.70;74.40;;;;;;5098623;28;20050;-77
2022/08/07 07:05:22;;;;;;;4.65;3.92;;;16.80;74.20;;;;;;5115389;28;20124;-76
2022/08/07 07:07:48;;;;;;;5.78;4.55;;;16.90;74.20;;;;;;5098374;28;20035;-77
2022/08/07 07:10:14;;;;;;;6.45;4.53;;;17.00;74.00;;;;;;5115410;28;20043;-78
2022/08/07 07:12:48;;;;;;;6.25;4.25;;;17.10;73.50;;;;;;5115166;28;20126;-75
2022/08/07 07:15:14;;;;;;;6.03;3.95;;;17.20;72.90;;;;;;5115039;28;20043;-76
2022/08/07 07:18:11;;;;;;;6.45;4.57;;;17.30;72.30;;;;;;5081165;28;20126;-76
2022/08/07 07:20:45;;;;;;;6.25;3.97;;;17.40;71.80;;;;;;5114999;28;20077;-78
2022/08/07 07:23:12;;;;;;;3.45;3.15;;;17.40;70.40;;;;;;5081127;28;20035;-77
2022/08/07 07:25:40;;;;;;;4.90;3.97;;;17.50;69.80;;;;;;5114742;28;20123;-76
2022/08/07 07:28:11;;;;;;;5.25;3.88;;;17.50;71.00;;;;;;5097878;28;20499;-77
2022/08/07 07:30:41;;;;;;;6.57;4.03;;;17.60;70.80;;;;;;5098165;28;20040;-76
2022/08/07 07:33:10;;;;;;;5.47;4.55;;;17.70;70.90;;;;;;5114800;28;20042;-76
2022/08/07 07:35:36;;;;;;;5.57;4.20;;;17.90;71.00;;;;;;5080899;28;20073;-77
2022/08/07 07:38:05;;;;;;;7.00;4.55;;;17.90;70.90;;;;;;5097421;28;20533;-77
2022/08/07 07:40:33;;;;;;;4.60;3.90;;;18.00;70.40;;;;;;5097545;28;20636;-77
2022/08/07 07:43:02;;;;;;;4.75;3.60;;;18.10;70.30;;;;;;5114647;28;20171;-76
2022/08/07 07:45:28;;;;;;;6.32;4.03;;;18.10;69.60;;;;;;5097647;28;20099;-77
2022/08/07 07:47:56;;;;;;;5.90;4.45;;;18.20;69.60;;;;;;5114525;28;20119;-77
2022/08/07 07:50:23;;;;;;;6.68;4.30;;;18.20;69.40;;;;;;5114770;28;20395;-77
2022/08/07 07:52:51;;;;;;;5.90;4.72;;;18.40;69.70;;;;;;5097670;28;20062;-77
2022/08/07 07:55:19;;;;;;;5.40;4.00;;;18.40;69.00;;;;;;5097275;28;20036;-77
2022/08/07 07:57:48;;;;;;;8.70;4.72;;;18.40;69.20;;;;;;5114312;28;20122;-77
2022/08/07 08:00:15;;;;;;;4.95;4.40;;;18.50;69.30;;;;;;5080331;28;20031;-76
2022/08/07 08:02:42;;;;;;;7.63;4.70;;;18.60;69.00;;;;;;5114235;28;20050;-77
2022/08/07 08:05:10;;;;;;;4.82;4.07;;;18.70;68.70;;;;;;5097282;28;20071;-77
2022/08/07 08:07:37;;;;;;;4.20;3.80;;;18.80;68.60;;;;;;5113454;28;20039;-77
2022/08/07 08:10:04;;;;;;;5.18;4.22;;;18.90;68.10;;;;;;5097241;28;20379;-78
2022/08/07 08:12:32;;;;;;;8.15;4.38;;;18.90;68.00;;;;;;5096998;28;20035;-77
2022/08/07 08:14:58;;;;;;;8.13;4.22;;;19.00;67.20;;;;;;5096868;28;20509;-77
2022/08/07 08:17:25;;;;;;;4.88;3.90;;;19.10;66.80;;;;;;5114106;28;20043;-77
2022/08/07 08:19:59;;;;;;;5.13;3.88;;;19.20;66.40;;;;;;5113913;28;20052;-77
2022/08/07 08:27:57;;;;;;;5.43;3.53;;;19.30;65.70;;;;;;5113818;28;20046;-77
2022/08/07 08:30:24;;;;;;;5.90;3.80;;;19.50;66.00;;;;;;5097039;28;20048;-78
2022/08/07 08:32:54;;;;;;;4.05;3.30;;;19.50;64.90;;;;;;5063477;28;20039;-78
2022/08/07 08:35:24;;;;;;;5.78;3.67;;;19.40;64.40;;;;;;5113751;28;20071;-77
2022/08/07 08:38:01;;;;;;;5.40;3.45;;;19.40;64.60;;;;;;5079794;28;20109;-76
2022/08/07 08:40:32;;;;;;;4.72;3.60;;;19.40;64.70;;;;;;5079619;28;20100;-77
2022/08/07 08:43:16;;;;;;;6.65;4.57;;;19.40;64.60;;;;;;5096456;28;20478;-78
2022/08/07 08:46:07;;;;;;;9.32;4.60;;;19.50;64.90;;;;;;5079318;28;20088;-77
2022/08/07 08:48:48;;;;;;;6.20;4.20;;;19.60;64.70;;;;;;5096316;28;20047;-77
2022/08/07 08:51:25;;;;;;;5.25;4.20;;;19.80;63.70;;;;;;5096613;28;20456;-77
2022/08/07 08:54:08;;;;;;;4.43;3.83;;;19.80;63.90;;;;;;5113422;28;20043;-78
2022/08/07 08:56:43;;;;;;;4.70;3.33;;;19.80;63.30;;;;;;5096221;28;20043;-78
2022/08/07 08:59:31;;;;;;;5.45;3.67;;;19.90;62.80;;;;;;5113410;28;20043;-76
2022/08/07 09:02:12;;;;;;;4.57;2.95;;;20.00;62.80;;;;;;5113366;28;20040;-78
2022/08/07 09:05:02;;;;;;;5.32;3.47;;;20.10;63.00;;;;;;5113110;28;20043;-77
2022/08/07 09:07:50;;;;;;;5.70;3.92;;;20.20;62.50;;;;;;5096082;28;20043;-77
2022/08/07 09:10:23;;;;;;;4.25;3.42;;;20.30;62.30;;;;;;5096065;28;20035;-77
2022/08/07 09:13:36;;;;;;;5.75;4.10;;;20.40;62.00;;;;;;5095902;28;20044;-77
2022/08/07 09:16:10;;;;;;;4.43;3.00;;;20.50;61.90;;;;;;5112746;28;20039;-76
2022/08/07 09:19:30;;;;;;;4.80;3.35;;;20.60;59.70;;;;;;5112547;28;20510;-79
2022/08/07 09:22:20;;;;;;;6.15;3.60;;;20.70;58.90;;;;;;4995131;28;20081;-76
2022/08/07 09:25:03;;;;;;;5.20;3.47;;;20.70;59.60;;;;;;5011457;28;20056;-78
2022/08/07 09:27:36;;;;;;;5.50;3.38;;;20.70;59.40;;;;;;5087729;28;20073;-78
2022/08/07 09:30:07;;;;;;;3.45;3.08;;;20.90;60.10;;;;;;5095836;28;20035;-76
2022/08/07 09:33:09;;;;;;;4.22;3.70;;;21.00;60.10;;;;;;5096053;28;20070;-77
2022/08/07 09:35:39;;;;;;;5.00;3.60;;;21.20;59.70;;;;;;5078597;28;20089;-78
2022/08/07 09:38:10;;;;;;;3.65;2.67;;;21.40;59.70;;;;;;5112323;28;20086;-78
2022/08/07 09:41:10;;;;;;;6.40;3.70;;;21.60;59.20;;;;;;5112644;28;20047;-77
2022/08/07 09:44:02;;;;;;;4.53;3.20;;;21.50;58.10;;;;;;5112475;28;20047;-77
2022/08/07 09:47:00;;;;;;;4.72;3.38;;;21.50;56.90;;;;;;5095422;28;20093;-78
2022/08/07 09:50:09;;;;;;;3.78;3.20;;;21.40;57.90;;;;;;5077824;28;20069;-77
2022/08/07 09:52:38;;;;;;;4.13;3.42;;;21.50;56.90;;;;;;5112409;28;20181;-76
2022/08/07 09:55:25;;;;;;;3.83;2.58;;;21.50;56.50;;;;;;5112205;28;20096;-78
2022/08/07 09:57:59;;;;;;;3.42;2.70;;;21.80;56.30;;;;;;5078264;28;20036;-76
2022/08/07 10:00:42;;;;;;;3.53;2.88;;;22.00;55.30;;;;;;5078626;28;20039;-78
2022/08/07 10:03:41;;;;;;;4.38;2.85;;;22.10;55.70;;;;;;5095184;28;20073;-78
2022/08/07 10:06:19;;;;;;;3.60;2.40;;;22.20;56.00;;;;;;5112152;28;20040;-79
2022/08/07 10:09:18;;;;;;;4.32;2.88;;;22.30;56.00;;;;;;5112199;28;20054;-78
2022/08/07 10:11:59;;;;;;;5.75;2.85;;;22.30;55.90;;;;;;5095351;28;20498;-79
2022/08/07 10:15:04;;;;;;;4.20;3.60;;;22.50;54.40;;;;;;5111994;28;20042;-78
2022/08/07 10:17:47;;;;;;;3.42;2.80;;;22.60;55.70;;;;;;4994459;28;20056;-78
2022/08/07 10:20:36;;;;;;;5.90;2.80;;;22.60;55.50;;;;;;5086948;28;20050;-78
2022/08/07 10:23:33;;;;;;;4.72;2.95;;;22.40;55.70;;;;;;5094962;28;20043;-78
2022/08/07 10:26:09;;;;;;;5.13;3.22;;;22.00;56.00;;;;;;5094946;28;20407;-77
2022/08/07 10:28:56;;;;;;;4.55;2.97;;;21.70;56.60;;;;;;5078441;28;20035;-79
2022/08/07 10:31:52;;;;;;;4.57;2.97;;;21.50;57.40;;;;;;5113850;28;20058;-79
2022/08/07 10:34:48;;;;;;;5.00;3.30;;;21.50;58.00;;;;;;5098928;28;20040;-78
2022/08/07 10:37:23;;;;;;;4.07;2.97;;;21.40;58.00;;;;;;5115919;28;20499;-78
2022/08/07 10:40:15;;;;;;;4.47;2.83;;;21.40;58.40;;;;;;5081779;28;20503;-77
2022/08/07 10:43:24;;;;;;;5.47;3.25;;;21.60;58.00;;;;;;5116018;28;20391;-78
2022/08/07 10:45:59;;;;;;;7.10;2.92;;;22.00;57.50;;;;;;5060450;28;20196;-77
2022/08/07 10:48:40;;;;;;;6.47;2.72;;;21.90;56.70;;;;;;5098666;28;20039;-78
2022/08/07 10:51:15;;;;;;;3.08;2.45;;;21.70;57.00;;;;;;5115652;28;20042;-78
2022/08/07 10:54:05;;;;;;;4.82;2.88;;;21.80;56.70;;;;;;5115718;28;20036;-78
2022/08/07 10:57:09;;;;;;;3.60;2.67;;;22.00;56.50;;;;;;5098526;28;20054;-77
2022/08/07 11:00:01;;;;;;;5.38;2.22;;;22.30;55.60;;;;;;5098759;28;20340;-75
2022/08/07 11:02:59;;;;;;;2.58;2.13;;;22.50;54.90;;;;;;5081382;28;20092;-76
2022/08/07 11:05:48;;;;;;;3.00;1.90;;;22.70;54.30;;;;;;5098159;28;20387;-75
2022/08/07 11:08:44;;;;;;;5.13;1.90;;;22.90;52.60;;;;;;5115305;28;20514;-76
2022/08/07 11:11:20;;;;;;;3.55;1.85;;;22.90;52.40;;;;;;5115528;28;20388;-76
2022/08/07 11:13:56;;;;;;;3.55;1.50;;;23.00;51.80;;;;;;5098333;28;20040;-76
2022/08/07 11:16:25;;;;;;;2.30;1.60;;;23.10;51.00;;;;;;5115397;28;20391;-75
2022/08/07 11:18:56;;;;;;;3.53;1.63;;;23.00;50.60;;;;;;5115135;28;20043;-75
2022/08/07 11:21:37;;;;;;;3.17;1.95;;;23.00;50.00;;;;;;5115125;28;20075;-76
2022/08/07 11:24:18;;;;;;;2.95;1.73;;;23.10;50.50;;;;;;5081149;28;20048;-75
2022/08/07 11:26:50;;;;;;;4.50;1.65;;;23.20;50.00;;;;;;5114813;28;20043;-76
2022/08/07 11:29:25;;;;;;;3.15;1.30;;;23.40;48.80;;;;;;5114906;28;20506;-76
2022/08/07 11:31:53;;;;;;;3.70;2.00;;;23.30;48.40;;;;;;5115297;28;20388;-76
2022/08/07 11:34:49;;;;;;;2.60;1.40;;;23.40;47.80;;;;;;5080878;28;20036;-77
2022/08/07 11:37:40;;;;;;;3.13;1.42;;;23.60;47.90;;;;;;5089739;28;20513;-76
2022/08/07 11:40:31;;;;;;;3.45;1.45;;;23.80;46.70;;;;;;5114746;28;20104;-76
2022/08/07 11:43:08;;;;;;;4.10;1.30;;;23.80;46.60;;;;;;5114605;28;20047;-76
2022/08/07 11:46:12;;;;;;;3.42;1.30;;;23.90;46.50;;;;;;5114446;28;20051;-76
2022/08/07 11:49:02;;;;;;;2.25;1.35;;;24.00;46.30;;;;;;5050165;28;20567;-76
2022/08/07 11:51:52;;;;;;;1.77;1.30;;;23.90;45.30;;;;;;5114812;28;20040;-75
2022/08/07 11:54:36;;;;;;;1.63;0.93;;;23.90;45.70;;;;;;5114619;28;20036;-77
2022/08/07 11:57:27;;;;;;;1.42;0.98;;;24.10;45.10;;;;;;5115010;28;20510;-77
2022/08/07 12:00:11;;;;;;;2.17;1.30;;;24.30;43.70;;;;;;5115295;28;20061;-77
2022/08/07 12:03:11;;;;;;;1.80;1.35;;;24.40;44.90;;;;;;5097727;28;20395;-77
2022/08/07 12:05:58;;;;;;;2.03;1.10;;;24.60;43.90;;;;;;5114638;28;20455;-76
2022/08/07 12:08:35;;;;;;;2.53;1.05;;;24.60;43.00;;;;;;5114338;28;20043;-77
2022/08/07 12:11:14;;;;;;;2.53;1.35;;;24.70;42.40;;;;;;5097386;28;20036;-76
2022/08/07 12:13:45;;;;;;;1.90;1.40;;;24.70;41.80;;;;;;5114276;28;20071;-76
2022/08/07 12:16:16;;;;;;;3.05;1.38;;;24.70;42.30;;;;;;5097455;28;20130;-76
2022/08/07 12:18:56;;;;;;;2.28;1.13;;;24.80;41.40;;;;;;5097283;28;20044;-77
2022/08/07 12:22:03;;;;;;;1.92;1.30;;;24.80;40.40;;;;;;5114270;28;20495;-77
2022/08/07 12:24:36;;;;;;;1.67;1.20;;;24.90;40.10;;;;;;5043194;28;20502;-77
2022/08/07 12:27:11;;;;;;;4.28;1.60;;;24.90;40.90;;;;;;5096869;28;20097;-77
2022/08/07 12:29:41;;;;;;;2.33;1.20;;;24.80;40.10;;;;;;5114250;28;20067;-77
2022/08/07 12:32:18;;;;;;;2.03;1.58;;;24.80;40.90;;;;;;5114011;28;20077;-77
2022/08/07 12:34:46;;;;;;;2.80;1.90;;;24.90;41.20;;;;;;5080185;28;20213;-77
2022/08/07 12:37:14;;;;;;;2.00;1.48;;;24.90;42.40;;;;;;5079938;28;20050;-78
2022/08/07 12:39:43;;;;;;;3.25;2.28;;;24.80;42.80;;;;;;5096578;28;20250;-77
2022/08/07 12:42:10;;;;;;;4.65;2.30;;;24.60;43.60;;;;;;5096661;28;20577;-78
2022/08/07 12:44:40;;;;;;;4.47;1.95;;;24.80;43.90;;;;;;5096924;28;20043;-76
2022/08/07 12:47:12;;;;;;;4.50;2.22;;;25.00;43.00;;;;;;5113475;28;20547;-76
2022/08/07 12:50:05;;;;;;;2.63;1.90;;;25.10;42.70;;;;;;5113505;28;20050;-76
2022/08/07 12:52:33;;;;;;;4.05;2.05;;;25.10;42.80;;;;;;5113835;28;20069;-76
2022/08/07 12:55:23;;;;;;;4.30;2.20;;;24.70;43.70;;;;;;5112848;28;20039;-77
2022/08/07 12:57:50;;;;;;;3.05;2.13;;;24.40;45.20;;;;;;5095997;28;20051;-78
2022/08/07 13:00:16;;;;;;;3.03;2.25;;;23.90;46.30;;;;;;5113241;28;20589;-78
2022/08/07 13:02:53;;;;;;;2.70;2.50;;;23.70;47.20;;;;;;5096456;28;20043;-78
2022/08/07 13:05:37;;;;;;;3.00;2.10;;;23.40;47.50;;;;;;5113017;28;20126;-76
2022/08/07 13:08:31;;;;;;;2.67;2.30;;;23.30;47.10;;;;;;5113280;28;20035;-78
2022/08/07 13:11:36;;;;;;;5.25;2.50;;;23.10;48.60;;;;;;5113597;28;20494;-77
2022/08/07 13:14:11;;;;;;;4.70;2.53;;;22.90;49.30;;;;;;5079579;28;20126;-77
2022/08/07 13:16:52;;;;;;;5.18;2.55;;;22.90;49.60;;;;;;5096258;28;20075;-78
2022/08/07 13:19:36;;;;;;;3.40;2.28;;;23.40;48.80;;;;;;5079152;28;20048;-77
2022/08/07 13:22:18;;;;;;;4.43;2.03;;;23.80;47.80;;;;;;5113289;28;20132;-77
2022/08/07 13:25:01;;;;;;;2.72;2.17;;;24.20;44.50;;;;;;5078883;28;20046;-77